Impacts TAF Board INFO
FOR SITUATIONAL AWARENESS. NOT TO BE USED FOR FLIGHT PLANNING PURPOSES.
IDs:

KMEM - Memphis Intl, TN, US

Issued at 2334 UTC 27 May 2018
Updated at 0134 UTC 28 May 2018
Potential Impact None Slight Moderate High
Time0054Z 28/02Z 28/03Z 28/04Z 28/05Z 28/06Z 28/07Z 28/08Z 28/09Z 28/10Z 28/11Z 28/12Z 28/13Z 28/14Z>>
Type OBS PRVL PRVL PRVL PRVL PRVL PRVL PRVL PRVL
  [TEMP]  
PRVL
  [TEMP]  
PRVL
  [TEMP]  
PRVL
  [TEMP]  
PRVL PRVL
VIS 10 >6 >6 >6 >6 >6 >6 >6 >6
  [5]  
>6
  [5]  
>6
  [5]  
>6
  [5]  
>6 >6
CIG -- 250 250 250 250 250 250 250 250
  [250]  
250
  [250]  
250
  [250]  
250
  [250]  
250 250
Cover SCT BKN BKN BKN BKN BKN BKN BKN BKN
  [BKN]  
BKN
  [BKN]  
BKN
  [BKN]  
BKN
  [BKN]  
BKN BKN
FltCat VFR VFR VFR VFR VFR VFR VFR VFR VFR
  [MVFR]  
VFR
  [MVFR]  
VFR
  [MVFR]  
VFR
  [MVFR]  
VFR VFR
WX -- -- -- -- -- -- -- -- --
  [BR]  
--
  [BR]  
--
  [BR]  
--
  [BR]  
-- --
WDir 150 VRB VRB VRB VRB VRB VRB VRB VRB
[VRB]
VRB
[VRB]
VRB
[VRB]
VRB
[VRB]
VRB VRB
WSpd 5 2 2 2 2 2 2 2 2
  [2]  
2
  [2]  
2
  [2]  
2
  [2]  
2 2
WGst -- -- -- -- -- -- -- -- --
  [--]  
--
  [--]  
--
  [--]  
--
  [--]  
-- --

Raw TAF
KMEM 272334Z 2800/2906 VRB02KT P6SM SCT150 BKN250
  TEMPO 2809/2813 5SM BR
  FM281500 07007KT P6SM SCT035 BKN200
  FM281900 06009KT P6SM VCTS BKN040CB BKN250
  FM290300 06006KT P6SM SCT050 BKN250


Raw METAR
KMEM 280054Z 15005KT 10SM FEW110 SCT150 SCT250 26/23 A2986 RMK AO2 SLP107 T02560228 $
KMEM 272354Z 14005KT 10SM FEW110 FEW150 BKN250 26/22 A2987 RMK AO2 SLP110 60079 T02610222 10317 20217 55001 $
KMEM 272254Z 14003KT 10SM FEW110 SCT150 BKN250 26/22 A2984 RMK AO2 SLP100 T02610222 $

METAR Board
Radar Display
Forecast Discussion

FOR SITUATIONAL AWARENESS. NOT TO BE USED FOR FLIGHT PLANNING PURPOSES.